Time;durP1;ratioP1;P1;durP2;ratioP2;P2;SDS_P1;SDS_P2;PMS_P1;PMS_P2;Temp;Humidity;BMP_temperature;BMP_pressure;BME280_temperature;BME280_humidity;BME280_pressure;Samples;Min_cycle;Max_cycle;Signal;HPM_P1;HPM_P2
2022/01/26 00:06:07;;;;;;;91.47;41.08;;;3.40;99.90;;;;;;5072831;28;20509;-86
2022/01/26 00:08:33;;;;;;;86.70;37.13;;;3.40;99.90;;;;;;5055333;28;20017;-86
2022/01/26 00:10:59;;;;;;;85.57;40.03;;;3.30;99.90;;;;;;5055304;28;20025;-88
2022/01/26 00:13:25;;;;;;;85.15;38.60;;;3.30;99.90;;;;;;5054922;28;20040;-86
2022/01/26 00:15:51;;;;;;;83.07;37.42;;;3.30;99.90;;;;;;5054983;28;20020;-85
2022/01/26 00:18:19;;;;;;;88.78;41.28;;;3.30;99.90;;;;;;5055950;28;20020;-88
2022/01/26 00:20:53;;;;;;;81.43;35.83;;;3.30;99.90;;;;;;5056237;28;20051;-87
2022/01/26 00:26:06;;;;;;;83.97;37.90;;;3.30;99.90;;;;;;5073978;28;20127;-86
2022/01/26 00:38:54;;;;;;;87.05;40.70;;;3.20;99.90;;;;;;5093325;28;20120;-90
2022/01/26 00:41:33;;;;;;;80.97;35.60;;;3.20;99.90;;;;;;5070405;28;20059;-88
2022/01/26 00:43:59;;;;;;;76.80;34.47;;;3.20;99.90;;;;;;5058974;28;20289;-87
2022/01/26 00:46:25;;;;;;;72.43;33.05;;;3.20;99.90;;;;;;5070850;28;20265;-87
2022/01/26 00:48:52;;;;;;;73.85;32.83;;;3.20;99.90;;;;;;5069526;28;20489;-89
2022/01/26 00:51:21;;;;;;;73.13;34.05;;;3.20;99.90;;;;;;5090282;28;20036;-85
2022/01/26 00:53:54;;;;;;;81.20;37.08;;;3.20;99.90;;;;;;5072746;28;20138;-88
2022/01/26 00:56:20;;;;;;;86.35;38.88;;;3.20;99.90;;;;;;5068845;28;20055;-87
2022/01/26 00:58:46;;;;;;;84.07;38.47;;;3.20;99.90;;;;;;5062938;28;20043;-87
2022/01/26 01:01:12;;;;;;;74.70;35.20;;;3.20;99.90;;;;;;5057996;28;20031;-88
2022/01/26 01:03:43;;;;;;;76.50;34.33;;;3.20;99.90;;;;;;5054284;28;20037;-87
2022/01/26 01:06:18;;;;;;;87.43;39.40;;;3.20;99.90;;;;;;5059672;28;20470;-86
2022/01/26 01:08:46;;;;;;;97.22;42.63;;;3.20;99.90;;;;;;5088795;28;20639;-87
2022/01/26 01:11:12;;;;;;;90.15;40.72;;;3.20;99.90;;;;;;5054582;28;20068;-86
2022/01/26 01:13:40;;;;;;;91.05;41.80;;;3.10;99.90;;;;;;5074925;28;20029;-86
2022/01/26 01:16:09;;;;;;;89.03;41.35;;;3.10;99.90;;;;;;5057773;28;20028;-88
2022/01/26 01:27:05;;;;;;;86.75;38.88;;;3.10;99.90;;;;;;5078072;28;20097;-84
2022/01/26 01:29:39;;;;;;;99.28;44.30;;;3.10;99.90;;;;;;5083179;28;20029;-88
2022/01/26 01:32:12;;;;;;;96.43;42.67;;;3.10;99.90;;;;;;5058974;28;20072;-85
2022/01/26 01:34:39;;;;;;;91.22;40.88;;;3.10;99.90;;;;;;5077534;28;20041;-87
2022/01/26 01:37:09;;;;;;;85.53;37.65;;;3.10;99.90;;;;;;5074698;28;20088;-85
2022/01/26 01:39:36;;;;;;;75.45;34.38;;;3.10;99.90;;;;;;5073990;28;20068;-86
2022/01/26 01:42:04;;;;;;;74.78;33.55;;;3.10;99.90;;;;;;5074888;28;20024;-85
2022/01/26 01:44:30;;;;;;;80.05;34.22;;;3.10;99.90;;;;;;5089404;28;20957;-88
2022/01/26 01:46:57;;;;;;;73.78;33.38;;;3.10;99.90;;;;;;5064581;28;20115;-88
2022/01/26 01:49:23;;;;;;;66.38;31.00;;;3.10;99.90;;;;;;5094728;28;20032;-88
2022/01/26 01:51:54;;;;;;;65.82;31.30;;;3.10;99.90;;;;;;5095022;28;20077;-87
2022/01/26 01:54:20;;;;;;;64.30;29.17;;;3.10;99.90;;;;;;5062431;28;20044;-87
2022/01/26 01:56:55;;;;;;;63.47;29.02;;;3.10;99.90;;;;;;5073817;28;20033;-87
2022/01/26 01:59:26;;;;;;;65.43;29.08;;;3.20;99.90;;;;;;5073737;28;20063;-86
2022/01/26 02:01:52;;;;;;;65.20;29.60;;;3.20;99.90;;;;;;5055558;28;20367;-87
2022/01/26 02:04:18;;;;;;;61.58;27.85;;;3.20;99.90;;;;;;5074757;28;20029;-87
2022/01/26 02:06:43;;;;;;;57.83;27.08;;;3.20;99.90;;;;;;5075159;28;20043;-87
2022/01/26 02:09:11;;;;;;;59.38;27.73;;;3.20;99.90;;;;;;5059349;28;20060;-88
2022/01/26 02:11:52;;;;;;;69.72;30.30;;;3.30;99.90;;;;;;5073328;28;20025;-86
2022/01/26 02:14:27;;;;;;;66.28;29.95;;;3.30;99.90;;;;;;5048664;28;20075;-86
2022/01/26 02:50:42;;;;;;;81.82;34.60;;;3.20;99.90;;;;;;5077800;28;20090;-86
2022/01/26 03:02:48;;;;;;;72.63;33.72;;;3.30;99.90;;;;;;5077139;28;20082;-90
2022/01/26 03:05:16;;;;;;;79.28;34.17;;;3.30;99.90;;;;;;5077366;28;20044;-88
2022/01/26 03:07:48;;;;;;;79.60;34.22;;;3.30;99.90;;;;;;5059673;28;20032;-89
2022/01/26 03:10:23;;;;;;;86.50;38.20;;;3.30;99.90;;;;;;5077851;28;20029;-88
2022/01/26 03:12:55;;;;;;;89.18;40.63;;;3.20;99.90;;;;;;5079510;28;20035;-87
2022/01/26 03:15:29;;;;;;;95.20;43.72;;;3.20;99.90;;;;;;5064641;28;20086;-84
2022/01/26 03:20:21;;;;;;;85.68;39.83;;;3.20;99.90;;;;;;5080340;28;20064;-89
2022/01/26 03:28:23;;;;;;;84.10;38.88;;;3.20;99.90;;;;;;5060614;28;20035;-89
2022/01/26 03:36:14;;;;;;;86.93;38.38;;;3.20;99.90;;;;;;5077299;28;20549;-85
2022/01/26 03:38:49;;;;;;;88.32;38.42;;;3.20;99.90;;;;;;5083268;28;20033;-85
2022/01/26 03:41:34;;;;;;;89.13;39.90;;;3.20;99.90;;;;;;5082792;28;20052;-86
2022/01/26 03:44:00;;;;;;;87.22;38.67;;;3.20;99.90;;;;;;5079552;28;20092;-82
2022/01/26 03:46:26;;;;;;;83.65;37.78;;;3.20;99.90;;;;;;5065734;28;20075;-85
2022/01/26 03:48:52;;;;;;;90.13;40.42;;;3.20;99.90;;;;;;5083161;28;20096;-85
2022/01/26 03:51:18;;;;;;;88.80;38.03;;;3.20;99.90;;;;;;5062714;28;20036;-87
2022/01/26 03:53:44;;;;;;;86.78;38.03;;;3.20;99.90;;;;;;5060670;28;20052;-89
2022/01/26 03:56:09;;;;;;;91.97;40.33;;;3.20;99.90;;;;;;5076670;28;20037;-90
2022/01/26 03:58:35;;;;;;;93.47;41.80;;;3.20;99.90;;;;;;5059526;28;20039;-89
2022/01/26 04:01:01;;;;;;;91.60;38.58;;;3.20;99.90;;;;;;5058292;28;20029;-89
2022/01/26 04:03:26;;;;;;;80.43;35.85;;;3.20;99.90;;;;;;5076033;28;20036;-89
2022/01/26 04:05:52;;;;;;;85.38;37.63;;;3.30;99.90;;;;;;5076060;28;20055;-88
2022/01/26 04:08:26;;;;;;;82.57;38.05;;;3.20;99.90;;;;;;5058310;28;20038;-89
2022/01/26 04:13:26;;;;;;;88.10;38.30;;;3.30;99.90;;;;;;5076205;28;20048;-89
2022/01/26 04:15:52;;;;;;;86.95;37.95;;;3.20;99.90;;;;;;5075648;28;20040;-89
2022/01/26 04:18:24;;;;;;;89.63;40.47;;;3.30;99.90;;;;;;5058690;28;20478;-89
2022/01/26 04:20:53;;;;;;;94.05;43.13;;;3.30;99.90;;;;;;5057194;28;20025;-89
2022/01/26 04:23:32;;;;;;;96.55;42.45;;;3.20;99.90;;;;;;5058349;28;20385;-89
2022/01/26 04:25:58;;;;;;;98.88;44.30;;;3.30;99.90;;;;;;5058770;28;20070;-87
2022/01/26 04:28:35;;;;;;;89.60;39.78;;;3.20;99.90;;;;;;5060680;28;20029;-85
2022/01/26 04:31:01;;;;;;;85.90;37.25;;;3.30;99.90;;;;;;5082953;28;20029;-86
2022/01/26 04:33:26;;;;;;;82.95;36.95;;;3.30;99.90;;;;;;5081200;28;20048;-84
2022/01/26 04:35:52;;;;;;;76.13;33.90;;;3.30;99.90;;;;;;5083072;28;20040;-87
2022/01/26 04:43:36;;;;;;;94.38;40.58;;;3.30;99.90;;;;;;5045775;28;20037;-87
2022/01/26 04:46:02;;;;;;;94.45;42.65;;;3.30;99.90;;;;;;5060372;28;20032;-89
2022/01/26 04:48:28;;;;;;;90.90;41.45;;;3.40;99.90;;;;;;5060886;28;20078;-88
2022/01/26 04:50:54;;;;;;;99.32;43.25;;;3.30;99.90;;;;;;5059444;28;20033;-87
2022/01/26 04:53:20;;;;;;;103.15;46.97;;;3.40;99.90;;;;;;5057907;28;20040;-86
2022/01/26 04:55:46;;;;;;;104.45;47.33;;;3.40;99.90;;;;;;5058097;28;20422;-87
2022/01/26 04:58:11;;;;;;;101.40;42.85;;;3.40;99.90;;;;;;5057752;28;20087;-88
2022/01/26 05:00:37;;;;;;;91.45;42.45;;;3.30;99.90;;;;;;5058004;28;20033;-87
2022/01/26 05:03:03;;;;;;;97.60;43.75;;;3.40;99.90;;;;;;5058915;28;20039;-88
2022/01/26 05:05:29;;;;;;;94.03;43.10;;;3.30;99.90;;;;;;5059804;28;20126;-85
2022/01/26 05:07:54;;;;;;;93.45;42.30;;;3.40;99.90;;;;;;5061607;28;20029;-89
2022/01/26 05:10:20;;;;;;;97.60;44.05;;;3.30;99.90;;;;;;5058447;28;20021;-88
2022/01/26 05:12:46;;;;;;;111.07;48.22;;;3.30;99.90;;;;;;5057641;28;20138;-88
2022/01/26 05:15:12;;;;;;;109.25;49.72;;;3.30;99.90;;;;;;5058063;28;20028;-88
2022/01/26 05:17:38;;;;;;;106.32;46.53;;;3.30;99.90;;;;;;5056626;28;20028;-88
2022/01/26 05:20:09;;;;;;;104.22;47.25;;;3.30;99.90;;;;;;5075063;28;20035;-87
2022/01/26 05:22:38;;;;;;;89.57;40.95;;;3.30;99.90;;;;;;5074321;28;20120;-87
2022/01/26 05:25:07;;;;;;;89.82;42.33;;;3.30;99.90;;;;;;5056387;28;20047;-87
2022/01/26 05:27:33;;;;;;;84.25;39.47;;;3.30;99.90;;;;;;5056931;28;20025;-87
2022/01/26 05:29:59;;;;;;;91.93;42.00;;;3.40;99.90;;;;;;5057159;28;20589;-88
2022/01/26 05:32:25;;;;;;;92.25;43.40;;;3.40;99.90;;;;;;5055852;28;20120;-87
2022/01/26 05:34:51;;;;;;;98.55;42.75;;;3.40;99.90;;;;;;5055388;28;20029;-88
2022/01/26 05:37:17;;;;;;;101.78;44.60;;;3.40;99.90;;;;;;5055238;28;20948;-89
2022/01/26 05:39:43;;;;;;;107.07;48.55;;;3.40;99.90;;;;;;5056929;28;20033;-90
2022/01/26 05:42:09;;;;;;;107.97;47.33;;;3.40;99.90;;;;;;5058323;28;20434;-87
2022/01/26 05:44:35;;;;;;;97.15;43.63;;;3.40;99.90;;;;;;5061592;28;20025;-89
2022/01/26 05:47:01;;;;;;;99.70;44.92;;;3.40;99.90;;;;;;5064432;28;20045;-86
2022/01/26 05:49:26;;;;;;;101.35;46.17;;;3.40;99.90;;;;;;5079700;28;20555;-87
2022/01/26 05:51:53;;;;;;;100.28;44.53;;;3.40;99.90;;;;;;5071001;28;20040;-91
2022/01/26 05:54:19;;;;;;;97.07;44.50;;;3.40;99.90;;;;;;5069543;28;20044;-85
2022/01/26 05:56:47;;;;;;;103.18;43.50;;;3.40;99.90;;;;;;5092822;28;20234;-86
2022/01/26 05:59:18;;;;;;;105.63;46.42;;;3.40;99.90;;;;;;5093084;28;20016;-87
2022/01/26 06:01:43;;;;;;;100.57;44.85;;;3.40;99.90;;;;;;5092760;28;20012;-84
2022/01/26 06:04:09;;;;;;;98.63;45.13;;;3.40;99.90;;;;;;5091714;28;20063;-86
2022/01/26 06:06:35;;;;;;;98.07;44.13;;;3.40;99.90;;;;;;5074927;28;20063;-84
2022/01/26 06:09:00;;;;;;;107.10;47.00;;;3.40;99.90;;;;;;5071315;28;20036;-85
2022/01/26 06:11:26;;;;;;;99.18;43.88;;;3.40;99.90;;;;;;5070793;28;20052;-86
2022/01/26 06:13:52;;;;;;;92.90;39.95;;;3.40;99.90;;;;;;5070656;28;20035;-86
2022/01/26 06:16:17;;;;;;;107.80;43.25;;;3.40;99.90;;;;;;5091610;28;20028;-86
2022/01/26 06:18:46;;;;;;;115.35;52.05;;;3.40;99.90;;;;;;5069999;28;20035;-87
2022/01/26 06:21:12;;;;;;;102.85;47.58;;;3.30;99.90;;;;;;5081935;28;20039;-85
2022/01/26 06:23:38;;;;;;;110.93;48.45;;;3.30;99.90;;;;;;5100021;28;20104;-88
2022/01/26 06:26:04;;;;;;;103.88;45.53;;;3.30;99.90;;;;;;5065243;28;20055;-88
2022/01/26 06:28:29;;;;;;;109.72;48.40;;;3.30;99.90;;;;;;5069960;28;20033;-88
2022/01/26 06:31:10;;;;;;;112.25;48.88;;;3.30;99.90;;;;;;5088204;28;20037;-85
2022/01/26 06:33:57;;;;;;;117.90;49.70;;;3.30;99.90;;;;;;5082989;28;20044;-84
2022/01/26 06:36:24;;;;;;;114.70;51.33;;;3.30;99.90;;;;;;5105088;28;20024;-84
2022/01/26 06:38:50;;;;;;;119.63;50.70;;;3.30;99.90;;;;;;5116723;22;20053;-92
2022/01/26 06:41:23;;;;;;;122.38;53.95;;;3.30;99.90;;;;;;5073873;28;20045;-85
2022/01/26 06:43:54;;;;;;;116.55;51.17;;;3.30;99.90;;;;;;5048073;28;20147;-90
2022/01/26 06:46:26;;;;;;;118.60;51.50;;;3.30;99.90;;;;;;5064232;28;20050;-90
2022/01/26 06:49:37;;;;;;;122.38;54.45;;;3.30;99.90;;;;;;5077817;28;20052;-88
2022/01/26 06:51:44;;;;;;;122.60;52.80;;;3.20;99.90;;;;;;5067012;28;20486;-89
2022/01/26 06:54:09;;;;;;;121.60;49.92;;;3.20;99.90;;;;;;5078651;28;20097;-87
2022/01/26 06:56:35;;;;;;;115.43;48.75;;;3.20;99.90;;;;;;5079323;28;20028;-87
2022/01/26 06:59:01;;;;;;;123.20;51.97;;;3.20;99.90;;;;;;5079069;28;20090;-89
2022/01/26 07:01:26;;;;;;;131.32;54.60;;;3.20;99.90;;;;;;5092941;28;20110;-91
2022/01/26 07:03:52;;;;;;;129.75;55.30;;;3.20;99.90;;;;;;5081313;28;20040;-90
2022/01/26 07:06:18;;;;;;;140.73;59.00;;;3.20;99.90;;;;;;5080923;28;20363;-90
2022/01/26 07:08:45;;;;;;;125.30;55.38;;;3.20;99.90;;;;;;5070929;28;20044;-87
2022/01/26 07:11:11;;;;;;;136.98;58.00;;;3.20;99.90;;;;;;5098244;28;20097;-89
2022/01/26 07:13:39;;;;;;;136.13;57.80;;;3.20;99.90;;;;;;5065270;28;20486;-87
2022/01/26 07:21:36;;;;;;;137.88;57.80;;;3.10;99.90;;;;;;5087666;28;20066;-88
2022/01/26 07:24:02;;;;;;;132.52;56.55;;;3.10;99.90;;;;;;5076883;28;20490;-88
2022/01/26 07:26:29;;;;;;;121.80;51.78;;;3.10;99.90;;;;;;5064642;28;20038;-89
2022/01/26 07:28:57;;;;;;;125.85;54.80;;;3.10;99.90;;;;;;5079648;28;20457;-89
2022/01/26 07:31:23;;;;;;;123.38;52.50;;;3.20;99.90;;;;;;5065101;28;20497;-86
2022/01/26 07:33:54;;;;;;;130.90;56.97;;;3.20;99.90;;;;;;5059197;28;20528;-88
2022/01/26 07:36:20;;;;;;;130.23;54.42;;;3.20;99.90;;;;;;5079709;28;20025;-87
2022/01/26 07:38:49;;;;;;;139.02;55.95;;;3.20;99.90;;;;;;5073283;28;20033;-88
2022/01/26 07:41:15;;;;;;;132.65;55.28;;;3.20;99.90;;;;;;5093030;28;20490;-88
2022/01/26 07:43:41;;;;;;;134.70;56.38;;;3.20;99.90;;;;;;5100758;28;20032;-87
2022/01/26 07:46:09;;;;;;;133.23;54.60;;;3.10;99.90;;;;;;5100376;28;20090;-85
2022/01/26 07:48:36;;;;;;;128.82;54.45;;;3.10;99.90;;;;;;5090983;28;20024;-88
2022/01/26 07:51:02;;;;;;;133.43;55.30;;;3.10;99.90;;;;;;5074003;28;20055;-87
2022/01/26 07:53:28;;;;;;;140.52;58.88;;;3.10;99.90;;;;;;5080413;28;20115;-88
2022/01/26 07:55:56;;;;;;;129.60;52.65;;;3.10;99.90;;;;;;5084590;28;20027;-89
2022/01/26 07:58:22;;;;;;;129.95;52.00;;;3.10;99.90;;;;;;5081822;28;20033;-90
2022/01/26 08:00:49;;;;;;;125.10;52.45;;;3.10;99.90;;;;;;5067196;28;20462;-86
2022/01/26 08:03:15;;;;;;;127.05;53.00;;;3.10;99.90;;;;;;5081694;28;20071;-90
2022/01/26 08:05:42;;;;;;;121.65;50.85;;;3.10;99.90;;;;;;5061950;28;20028;-86
2022/01/26 08:08:07;;;;;;;120.85;50.13;;;3.10;99.90;;;;;;5063536;28;20079;-89
2022/01/26 08:10:33;;;;;;;117.03;48.15;;;3.10;99.90;;;;;;5076023;28;20032;-90
2022/01/26 08:13:00;;;;;;;119.32;48.05;;;3.20;99.90;;;;;;5082332;28;20092;-89
2022/01/26 08:15:26;;;;;;;126.32;53.03;;;3.20;99.90;;;;;;5097999;28;20043;-86
2022/01/26 08:17:52;;;;;;;142.15;55.60;;;3.20;99.90;;;;;;5070279;28;20028;-87
2022/01/26 08:20:21;;;;;;;133.02;52.95;;;3.20;99.90;;;;;;5068859;28;20277;-89
2022/01/26 08:22:48;;;;;;;142.23;59.50;;;3.20;99.90;;;;;;5086290;28;20078;-88
2022/01/26 08:25:19;;;;;;;126.78;52.78;;;3.10;99.90;;;;;;5070275;28;20024;-87
2022/01/26 08:27:52;;;;;;;130.93;53.22;;;3.20;99.90;;;;;;5081669;28;20103;-86
2022/01/26 08:30:20;;;;;;;129.88;52.22;;;3.10;99.90;;;;;;5072383;28;20024;-88
2022/01/26 08:32:46;;;;;;;131.73;51.90;;;3.10;99.90;;;;;;5088327;28;20108;-89
2022/01/26 08:35:12;;;;;;;132.45;54.38;;;3.20;99.90;;;;;;5092153;28;20083;-91
2022/01/26 08:37:37;;;;;;;143.55;56.90;;;3.20;99.90;;;;;;5063884;28;20071;-89
2022/01/26 08:40:08;;;;;;;139.68;56.35;;;3.20;99.90;;;;;;5045765;28;20037;-89
2022/01/26 08:42:37;;;;;;;133.95;56.42;;;3.20;99.90;;;;;;5060019;28;20042;-86
2022/01/26 08:45:04;;;;;;;135.05;55.55;;;3.20;99.90;;;;;;5026278;28;20033;-88
2022/01/26 08:47:30;;;;;;;131.77;56.70;;;3.30;99.90;;;;;;5027237;28;20038;-87
2022/01/26 08:49:57;;;;;;;138.73;57.88;;;3.20;99.90;;;;;;5043870;28;20111;-85
2022/01/26 08:52:23;;;;;;;128.45;51.92;;;3.30;99.90;;;;;;5041400;28;20036;-87
2022/01/26 08:54:49;;;;;;;123.38;50.15;;;3.30;99.90;;;;;;5075307;22;20144;-86
2022/01/26 08:57:14;;;;;;;120.65;51.80;;;3.30;99.90;;;;;;5073298;28;20032;-86
2022/01/26 08:59:40;;;;;;;128.48;53.55;;;3.30;99.90;;;;;;5074175;28;20390;-88
2022/01/26 09:02:07;;;;;;;121.75;51.05;;;3.30;99.90;;;;;;5056821;28;20098;-89
2022/01/26 09:04:34;;;;;;;133.15;53.28;;;3.40;99.90;;;;;;5057970;28;20123;-89
2022/01/26 09:07:02;;;;;;;130.70;53.53;;;3.40;99.90;;;;;;5064417;28;20037;-84
2022/01/26 09:09:31;;;;;;;130.40;52.97;;;3.40;99.90;;;;;;5081435;28;20048;-90
2022/01/26 09:11:59;;;;;;;130.65;55.88;;;3.40;99.90;;;;;;5083404;28;20032;-87
2022/01/26 09:14:27;;;;;;;129.38;53.25;;;3.40;99.90;;;;;;5064006;28;20044;-88
2022/01/26 09:16:54;;;;;;;123.45;51.95;;;3.40;99.90;;;;;;5065451;28;20081;-86
2022/01/26 09:21:50;;;;;;;139.23;55.63;;;3.50;99.90;;;;;;5080063;28;20055;-90
2022/01/26 09:24:16;;;;;;;131.25;53.33;;;3.50;99.90;;;;;;5044556;28;20029;-89
2022/01/26 09:26:41;;;;;;;139.05;56.58;;;3.50;99.90;;;;;;5061456;28;20028;-90
2022/01/26 09:29:07;;;;;;;130.98;54.13;;;3.50;99.90;;;;;;5061433;28;20418;-89
2022/01/26 09:31:33;;;;;;;127.32;53.90;;;3.50;99.90;;;;;;5060040;28;20040;-89
2022/01/26 09:33:58;;;;;;;130.20;54.45;;;3.50;99.90;;;;;;5060463;28;20036;-88
2022/01/26 09:36:24;;;;;;;119.47;51.33;;;3.50;99.90;;;;;;5058507;28;20115;-88
2022/01/26 09:38:50;;;;;;;119.75;50.22;;;3.50;99.90;;;;;;5056255;28;20035;-88
2022/01/26 09:41:16;;;;;;;125.05;51.97;;;3.60;99.90;;;;;;5056590;28;20115;-86
2022/01/26 09:43:44;;;;;;;130.55;54.33;;;3.60;99.90;;;;;;5073839;28;20036;-89
2022/01/26 09:46:13;;;;;;;123.05;51.72;;;3.60;99.90;;;;;;5056083;28;20071;-88
2022/01/26 09:48:41;;;;;;;115.63;49.67;;;3.60;99.90;;;;;;5064181;28;20036;-89
2022/01/26 09:51:07;;;;;;;117.90;50.55;;;3.60;99.90;;;;;;5058216;28;20028;-89
2022/01/26 09:53:35;;;;;;;121.15;51.00;;;3.80;99.90;;;;;;5057847;28;20072;-88
2022/01/26 09:56:01;;;;;;;126.07;50.38;;;3.70;99.90;;;;;;5060326;28;20052;-87
2022/01/26 09:58:27;;;;;;;124.72;52.95;;;3.70;99.90;;;;;;5071502;28;20388;-88
2022/01/26 10:00:57;;;;;;;127.28;52.38;;;3.70;99.90;;;;;;5073907;28;20032;-88
2022/01/26 10:03:30;;;;;;;118.32;52.47;;;3.70;99.90;;;;;;5095479;28;20059;-92
2022/01/26 10:05:56;;;;;;;119.28;55.10;;;3.80;99.90;;;;;;5084196;28;20039;-89
2022/01/26 10:08:50;;;;;;;124.65;54.03;;;3.80;99.90;;;;;;5063352;28;20393;-88
2022/01/26 10:18:57;;;;;;;122.35;51.80;;;3.80;99.90;;;;;;5078512;28;20086;-88
2022/01/26 10:21:24;;;;;;;120.90;51.58;;;3.80;99.90;;;;;;5060397;28;20413;-89
2022/01/26 10:23:52;;;;;;;116.40;50.30;;;3.90;99.90;;;;;;5059885;28;20486;-89
2022/01/26 10:26:19;;;;;;;115.75;50.45;;;3.90;99.90;;;;;;5040092;28;20029;-88
2022/01/26 10:28:57;;;;;;;104.10;47.08;;;3.90;99.90;;;;;;5060679;28;20024;-88
2022/01/26 10:31:29;;;;;;;115.70;51.00;;;3.90;99.90;;;;;;5059428;28;20364;-88
2022/01/26 10:34:04;;;;;;;113.43;52.20;;;4.00;99.90;;;;;;5059521;28;20051;-88
2022/01/26 10:36:37;;;;;;;109.25;51.70;;;3.90;99.90;;;;;;5058200;28;20267;-89
2022/01/26 10:39:03;;;;;;;114.85;53.28;;;4.00;99.90;;;;;;5059134;28;20566;-88
2022/01/26 10:41:29;;;;;;;117.20;52.40;;;4.00;99.90;;;;;;5057609;28;20028;-89
2022/01/26 10:43:57;;;;;;;106.50;48.90;;;4.00;99.90;;;;;;5057022;28;20032;-88
2022/01/26 10:46:32;;;;;;;103.72;47.55;;;4.00;99.90;;;;;;5074393;28;20028;-88
2022/01/26 10:49:29;;;;;;;107.25;48.90;;;4.00;99.90;;;;;;5059128;28;20121;-87
2022/01/26 10:51:56;;;;;;;96.20;47.38;;;4.10;99.90;;;;;;5076081;28;20033;-88
2022/01/26 10:54:36;;;;;;;100.50;49.63;;;4.10;99.90;;;;;;5076263;28;20398;-90
2022/01/26 10:57:04;;;;;;;90.55;46.78;;;4.10;99.90;;;;;;5058441;28;20028;-88
2022/01/26 10:59:36;;;;;;;87.20;44.92;;;4.10;99.90;;;;;;5058426;28;20040;-88
2022/01/26 11:02:04;;;;;;;89.00;44.63;;;4.10;99.90;;;;;;5057180;28;20036;-88
2022/01/26 11:04:33;;;;;;;82.05;42.10;;;4.10;99.90;;;;;;5058751;28;20025;-88
2022/01/26 11:07:01;;;;;;;79.80;41.13;;;4.20;99.90;;;;;;5056345;28;20032;-89
2022/01/26 11:09:31;;;;;;;77.15;40.67;;;4.20;99.90;;;;;;5055311;28;20108;-87
2022/01/26 11:12:09;;;;;;;73.10;38.78;;;4.20;99.90;;;;;;5056572;28;20047;-87
2022/01/26 11:14:44;;;;;;;70.20;37.17;;;4.20;99.90;;;;;;5056651;28;20042;-89
2022/01/26 11:17:34;;;;;;;73.63;37.88;;;4.20;99.90;;;;;;5056495;28;20482;-86
2022/01/26 11:20:02;;;;;;;66.93;34.72;;;4.30;99.90;;;;;;5053098;28;20425;-86
2022/01/26 11:22:31;;;;;;;77.72;38.35;;;4.30;99.90;;;;;;5055849;28;20043;-88
2022/01/26 11:25:11;;;;;;;67.93;35.47;;;4.30;99.90;;;;;;5055429;28;20033;-87
2022/01/26 11:27:40;;;;;;;72.80;36.47;;;4.30;99.90;;;;;;5058064;28;20044;-89
2022/01/26 11:30:21;;;;;;;68.57;36.60;;;4.30;99.90;;;;;;5054989;28;20147;-87
2022/01/26 11:32:58;;;;;;;72.00;35.17;;;4.30;99.90;;;;;;5056059;28;20049;-91
2022/01/26 11:35:27;;;;;;;70.28;36.15;;;4.30;99.90;;;;;;5057875;28;20037;-90
2022/01/26 11:38:10;;;;;;;73.50;35.03;;;4.30;99.90;;;;;;5059492;28;20036;-88
2022/01/26 11:46:32;;;;;;;66.38;32.42;;;4.40;99.90;;;;;;5062396;28;20094;-89
2022/01/26 11:49:05;;;;;;;71.80;35.67;;;4.40;99.90;;;;;;5059014;28;20043;-88
2022/01/26 11:51:44;;;;;;;64.03;31.83;;;4.40;99.90;;;;;;5056988;28;20401;-89
2022/01/26 11:54:21;;;;;;;69.93;35.03;;;4.50;99.90;;;;;;5058006;28;20402;-90
2022/01/26 11:57:11;;;;;;;68.55;34.63;;;4.50;99.90;;;;;;5060351;28;20047;-90
2022/01/26 11:59:45;;;;;;;68.38;34.47;;;4.50;99.90;;;;;;5061343;28;20032;-88
2022/01/26 12:02:40;;;;;;;78.75;36.47;;;4.50;99.90;;;;;;5063863;28;20044;-90
2022/01/26 12:05:10;;;;;;;64.93;34.60;;;4.60;99.90;;;;;;5060241;28;20474;-89
2022/01/26 12:07:56;;;;;;;68.90;33.45;;;4.60;99.90;;;;;;5059196;28;20032;-90
2022/01/26 12:10:28;;;;;;;72.53;35.83;;;4.60;99.90;;;;;;5044111;28;20024;-90
2022/01/26 12:13:15;;;;;;;69.13;33.53;;;4.60;99.90;;;;;;5059091;28;20040;-89
2022/01/26 12:15:56;;;;;;;69.72;34.35;;;4.70;99.90;;;;;;5061890;28;20220;-90
2022/01/26 12:18:36;;;;;;;67.45;34.50;;;4.70;99.90;;;;;;5073575;28;20032;-90
2022/01/26 12:43:49;;;;;;;63.92;34.65;;;4.80;99.90;;;;;;5057215;28;20036;-90
2022/01/26 12:46:18;;;;;;;74.93;38.13;;;4.90;99.90;;;;;;5060715;28;20040;-88
2022/01/26 12:48:50;;;;;;;72.55;35.22;;;4.90;99.90;;;;;;5076080;28;20029;-89
2022/01/26 12:51:16;;;;;;;74.10;38.50;;;4.90;99.90;;;;;;5075318;28;20036;-90
2022/01/26 12:53:43;;;;;;;75.93;36.85;;;5.00;99.90;;;;;;5071120;28;20071;-89
2022/01/26 12:56:13;;;;;;;71.30;37.63;;;5.00;99.90;;;;;;5060345;28;20029;-89
2022/01/26 12:58:42;;;;;;;69.13;36.78;;;5.00;99.90;;;;;;5060307;28;20029;-89
2022/01/26 13:01:18;;;;;;;69.57;36.25;;;5.00;99.90;;;;;;5064611;28;20090;-87
2022/01/26 13:03:46;;;;;;;67.70;37.30;;;5.00;99.90;;;;;;5063014;28;20021;-88
2022/01/26 13:06:24;;;;;;;64.35;34.08;;;5.00;99.90;;;;;;5061489;28;20033;-88
2022/01/26 13:08:51;;;;;;;73.93;33.97;;;5.10;99.90;;;;;;5053249;28;20182;-89
2022/01/26 13:11:30;;;;;;;66.97;34.97;;;5.00;99.90;;;;;;5060619;28;20033;-88
2022/01/26 13:14:02;;;;;;;65.75;33.65;;;5.00;99.90;;;;;;5062100;28;20056;-88
2022/01/26 13:16:35;;;;;;;67.30;35.50;;;5.00;99.90;;;;;;5074464;28;20038;-89
2022/01/26 13:19:31;;;;;;;72.25;34.35;;;5.00;99.90;;;;;;5056704;28;20044;-88
2022/01/26 13:34:12;;;;;;;72.30;36.63;;;5.10;99.90;;;;;;5070984;28;20048;-90
2022/01/26 13:42:45;;;;;;;62.50;33.05;;;5.00;99.90;;;;;;5072944;28;20090;-86
2022/01/26 13:50:38;;;;;;;61.50;30.55;;;5.10;99.90;;;;;;5073148;28;19925;-86
2022/01/26 13:53:09;;;;;;;62.30;32.67;;;5.10;99.90;;;;;;5070666;28;20032;-86
2022/01/26 13:58:28;;;;;;;64.20;33.35;;;5.10;99.90;;;;;;5073261;28;20043;-88
2022/01/26 14:00:58;;;;;;;58.95;32.58;;;5.10;99.90;;;;;;5055376;28;20086;-90
2022/01/26 14:03:27;;;;;;;56.22;30.67;;;5.00;99.90;;;;;;5055963;28;20123;-86
2022/01/26 14:05:54;;;;;;;61.35;34.13;;;5.00;99.90;;;;;;5057208;28;20111;-89
2022/01/26 14:08:20;;;;;;;64.18;35.55;;;5.00;99.90;;;;;;5057904;28;20094;-89
2022/01/26 14:10:48;;;;;;;56.58;30.27;;;5.00;99.90;;;;;;5056351;28;20079;-88
2022/01/26 14:13:19;;;;;;;57.10;32.05;;;5.00;99.90;;;;;;5056445;28;20032;-90
2022/01/26 14:15:48;;;;;;;64.05;35.30;;;5.10;99.90;;;;;;5057221;28;20470;-88
2022/01/26 14:20:55;;;;;;;59.33;33.22;;;5.10;99.90;;;;;;5076278;28;20359;-87
2022/01/26 14:26:10;;;;;;;62.58;33.28;;;5.10;99.90;;;;;;5075161;28;20199;-88
2022/01/26 14:28:37;;;;;;;61.83;33.08;;;5.10;99.90;;;;;;5075411;28;20032;-89
2022/01/26 14:36:22;;;;;;;60.53;32.63;;;5.10;99.90;;;;;;5079320;28;20088;-89
2022/01/26 14:55:26;;;;;;;56.88;30.98;;;5.20;99.90;;;;;;5079047;28;20494;-88
2022/01/26 15:35:03;;;;;;;60.75;32.22;;;5.10;99.90;;;;;;5089329;28;20131;-87
2022/01/26 15:42:59;;;;;;;59.25;32.72;;;5.20;99.90;;;;;;5088428;28;20029;-88
2022/01/26 15:50:55;;;;;;;59.17;32.80;;;5.20;99.90;;;;;;5078998;28;20063;-89
2022/01/26 15:59:02;;;;;;;56.97;32.63;;;5.20;99.90;;;;;;5077742;28;20055;-86
2022/01/26 16:05:25;;;;;;;59.28;32.13;;;5.20;99.90;;;;;;5076192;28;20043;-89
2022/01/26 16:21:01;;;;;;;54.88;30.50;;;5.10;99.90;;;;;;5013227;28;20065;-91
2022/01/26 16:37:42;;;;;;;61.55;32.33;;;5.10;99.90;;;;;;5078044;28;20036;-90
2022/01/26 18:26:43;;;;;;;86.65;47.55;;;4.70;99.90;;;;;;5104944;28;20205;-90
